Česky Dansk Deutsch English Español Suomi Français Magyar Italiano Nederlands norsk Polski Português svenska Türkçe

 

Het Weer

Chiang Mai (Thailand)

11:00, 19 augustus 2016 (GMT)

NWNNE
WE
SWSSE
Home            
Chiang Mai Lampang Mae Sariang Mae Hong Son Phrae Chiang Rai Uttaradit Nan Tak Mae Sot Phitsanulok Hpa-An Kengtung Moulmein Sayaboury Loei Luang-Prabang Nakhon Sawan Mingaladon Yangon Vientiane Prome Meiktila

Om een weerknop op uw website of weblog te plaatsen, copieer onderstaande code en plak die in uw pagina. In het eerste vakje staat HTML-code, in het tweede vakje UBB-code.


Add to Google

Details

Wind speed:3 bf, 8 kn, 4.1 m/s, 9.2 miles/h, 14.8 km/h
Wind direction:S, 170°
Visibility:Greater than 10000 m, 10 km, 32800 ft, 6.2 miles
Clouds:Durchbrochene Bewölkung at 3500 ft, 1067 m
Temperature:29°C, 84°F
Gefühlte Temperatur:31°C, 87°F
Dew-point:20°C, 68°F
Atmospheric pressure:1000 hPa, 749.8 mmHg, 29.52 inHg, 0.987 atm
Relative humidity:58.4 %
METAR:VTCC 191100Z 17008KT 9999 BKN035 29/20 Q1000 A2952 NOSIG

Snelkoppelingen

Actuele weersinformatie van de hele wereld. Voeg locaties toe met het plus (+) symbool. Deze snelkoppelingen kunnen worden toegevoegd aan Google.

Lid van de Technetium groep

website free tracking
StatCounter NetStat W3C Validator

04-08-2020 01:07:35
astro.technetium.be money.technetium.be phote.technetium.be tafeltennistafel.technetium.be www.ligfiets.net